Lobo

Go HERE for most recent data if this page is not up to date.

Jump to table bottom
Date/Time Temp deg F RH % 24 Hr Snow (in) Snow Depth (in) H2O (in)
04/10 22:00 16.6 87 2.0 51.7 0.06
04/10 21:00 17.8 87 1.6 51.7 0.03
04/10 20:00 20.4 85 0.8 49.9 0.01
04/10 19:00 26.3 68 0.2 49.8 0.00
04/10 18:00 31.0 64 0.0 49.2 0.01
04/10 17:00 35.7 47 -0.1 49.2 0.00
04/10 16:00 36.6 35 -0.2 49.3 0.00
04/10 15:00 37.7 32 -0.2 49.4 0.00
04/10 14:00 37.7 29 -0.3 49.4 0.00
04/10 13:00 38.0 33 -0.1 49.5 0.00
04/10 12:00 37.5 29 -0.2 49.5 0.00
04/10 11:00 33.5 28 -0.0 50.2 0.00
04/10 10:00 32.6 29 -0.0 50.2 0.00
04/10 09:00 29.5 33 0.0 50.4 0.00
04/10 08:00 25.3 39 0.2 50.7 0.00
04/10 07:00 23.7 43 0.2 50.8 0.00
04/10 06:00 24.5 46 0.2 50.8 0.00
04/10 05:00 26.1 42 0.2 50.7 0.00
04/10 04:00 27.5 42 0.2 50.6 0.00
04/10 03:00 27.5 39 0.1 50.5 0.00
04/10 02:00 25.5 40 0.0 50.5 0.00
04/10 01:00 25.1 45 0.2 50.7 0.00
04/10 00:00 25.6 46 0.2 50.8 0.00
04/09 23:00 26.3 46 0.1 50.6 0.00
04/09 22:00 26.5 47 0.1 50.7 0.00
04/09 21:00 26.7 45 0.1 50.6 0.00
04/09 20:00 27.7 47 0.2 50.7 0.00
04/09 19:00 29.4 44 0.1 50.6 0.00
04/09 18:00 31.0 44 -0.0 50.5 0.00
04/09 17:00 32.6 37 -0.0 50.5 0.00
04/09 16:00 33.4 34 -0.1 50.6 0.00
04/09 15:00 31.9 26 -0.3 51.0 0.00
04/09 14:00 31.0 36 0.3 51.9 0.00
04/09 13:00 28.1 32 1.0 52.7 0.00
04/09 12:00 24.6 28 1.9 53.5 0.00
04/09 11:00 20.5 44 2.4 54.0 0.00
04/09 10:00 15.8 63 2.7 54.2 0.00
04/09 09:00 12.3 70 2.8 54.6 0.00
04/09 08:00 9.2 74 3.0 54.9 0.00
04/09 07:00 7.6 81 3.1 55.1 0.00
04/09 06:00 8.8 78 3.0 55.2 0.00
04/09 05:00 10.6 80 2.9 55.4 0.00
04/09 04:00 11.3 78 2.8 55.5 0.00
04/09 03:00 11.9 81 2.8 55.6 0.00
04/09 02:00 12.3 81 2.7 55.8 0.00
04/09 01:00 12.6 78 3.0 55.9 0.00
04/09 00:00 12.7 73 3.1 56.1 0.00
.